createdAt,value
2023-04-19T00:00:51.265Z,96184.00
2023-04-19T00:01:52.260Z,96184.00
2023-04-19T00:02:51.383Z,96182.00
2023-04-19T00:03:51.411Z,96182.00
2023-04-19T00:04:51.354Z,96182.00
2023-04-19T00:05:51.201Z,96182.00
2023-04-19T00:06:52.210Z,96180.00
2023-04-19T00:07:51.207Z,96176.00
2023-04-19T00:08:52.225Z,96180.00
2023-04-19T00:09:52.239Z,96176.00
2023-04-19T00:10:51.252Z,96172.00
2023-04-19T00:11:51.251Z,96174.00
2023-04-19T00:12:52.275Z,96172.00
2023-04-19T00:13:52.280Z,96172.00
2023-04-19T00:14:51.316Z,96172.00
2023-04-19T00:15:52.354Z,96172.00
2023-04-19T00:16:52.388Z,96174.00
2023-04-19T00:17:52.370Z,96172.00
2023-04-19T00:18:52.374Z,96172.00
2023-04-19T00:19:51.405Z,96174.00
2023-04-19T00:20:52.402Z,96172.00
2023-04-19T00:21:51.408Z,96162.00
2023-04-19T00:22:51.423Z,96174.00
2023-04-19T00:23:52.451Z,96164.00
2023-04-19T00:24:52.464Z,96172.00
2023-04-19T00:25:52.482Z,96172.00
2023-04-19T00:26:52.476Z,96172.00
2023-04-19T00:27:52.490Z,96172.00
2023-04-19T00:28:52.504Z,96174.00
2023-04-19T00:29:52.516Z,96172.00
2023-04-19T00:30:52.614Z,96164.00
2023-04-19T00:31:52.550Z,96162.00
2023-04-19T00:32:52.681Z,96162.00
2023-04-19T00:33:52.583Z,96162.00
2023-04-19T00:34:52.609Z,96162.00
2023-04-19T00:35:51.619Z,96160.00
2023-04-19T00:36:52.609Z,96158.00
2023-04-19T00:37:51.613Z,96158.00
2023-04-19T00:38:52.661Z,96154.00
2023-04-19T00:39:52.666Z,96154.00
2023-04-19T00:40:51.638Z,96154.00
2023-04-19T00:41:52.703Z,96156.00
2023-04-19T00:42:52.701Z,96154.00
2023-04-19T00:43:52.696Z,96152.00
2023-04-19T00:44:51.718Z,96152.00
2023-04-19T00:45:52.839Z,96154.00
2023-04-19T00:46:52.734Z,96150.00
2023-04-19T00:47:52.754Z,96154.00
2023-04-19T00:48:52.759Z,96152.00
2023-04-19T00:49:52.764Z,96150.00
2023-04-19T00:50:52.770Z,96148.00
2023-04-19T00:51:52.763Z,96150.00
2023-04-19T00:52:52.770Z,96146.00
2023-04-19T00:53:52.768Z,96144.00
2023-04-19T00:54:52.806Z,96144.00
2023-04-19T00:55:52.783Z,96146.00
2023-04-19T00:56:52.794Z,96144.00
2023-04-19T00:57:52.801Z,96146.00
2023-04-19T00:58:52.796Z,96144.00
2023-04-19T00:59:52.837Z,96144.00
2023-04-19T01:00:52.823Z,96141.00
2023-04-19T01:01:52.921Z,96141.00
2023-04-19T01:02:52.979Z,96142.00
2023-04-19T01:03:52.995Z,96139.00
2023-04-19T01:04:53.034Z,96137.00
2023-04-19T01:05:52.889Z,96137.00
2023-04-19T01:06:51.913Z,96137.00
2023-04-19T01:07:51.926Z,96137.00
2023-04-19T01:08:52.915Z,96139.00
2023-04-19T01:09:52.962Z,96137.00
2023-04-19T01:10:52.962Z,96137.00
2023-04-19T01:11:52.960Z,96135.00
2023-04-19T01:12:51.988Z,96133.00
2023-04-19T01:13:53.006Z,96131.00
2023-04-19T01:14:53.039Z,96133.00
2023-04-19T01:15:52.106Z,96131.00
2023-04-19T01:16:53.047Z,96129.00
2023-04-19T01:17:53.156Z,96129.00
2023-04-19T01:18:53.074Z,96127.00
2023-04-19T01:19:52.103Z,96125.00
2023-04-19T01:20:52.184Z,96123.00
2023-04-19T01:21:53.150Z,96125.00
2023-04-19T01:22:52.160Z,96123.00
2023-04-19T01:23:52.168Z,96121.00
2023-04-19T01:24:53.222Z,96121.00
2023-04-19T01:25:53.239Z,96121.00
2023-04-19T01:26:53.262Z,96117.00
2023-04-19T01:27:53.272Z,96121.00
2023-04-19T01:28:53.291Z,96117.00
2023-04-19T01:29:53.293Z,96121.00
2023-04-19T01:30:52.365Z,96117.00
2023-04-19T01:31:53.347Z,96119.00
2023-04-19T01:32:52.388Z,96117.00
2023-04-19T01:33:53.381Z,96117.00
2023-04-19T01:34:53.401Z,96117.00
2023-04-19T01:35:52.712Z,96115.00
2023-04-19T01:36:53.479Z,96115.00
2023-04-19T01:37:53.481Z,96115.00
2023-04-19T01:38:53.506Z,96115.00
2023-04-19T01:39:53.540Z,96115.00
2023-04-19T01:40:53.571Z,96115.00
2023-04-19T01:41:52.584Z,96115.00
2023-04-19T01:42:52.640Z,96115.00
2023-04-19T01:43:52.632Z,96113.00
2023-04-19T01:44:53.657Z,96115.00
2023-04-19T01:45:52.695Z,96115.00
2023-04-19T01:46:52.806Z,96115.00
2023-04-19T01:47:53.791Z,96113.00
2023-04-19T01:48:53.779Z,96113.00
2023-04-19T01:49:53.796Z,96113.00
2023-04-19T01:50:53.834Z,96113.00
2023-04-19T01:51:53.855Z,96111.00
2023-04-19T01:52:53.909Z,96111.00
2023-04-19T01:53:53.912Z,96113.00
2023-04-19T01:54:52.950Z,96109.00
2023-04-19T01:55:52.973Z,96109.00
2023-04-19T01:56:54.004Z,96109.00
2023-04-19T01:57:54.767Z,96105.00
2023-04-19T01:58:54.076Z,96103.00
2023-04-19T01:59:53.120Z,96101.00
2023-04-19T02:00:54.161Z,96101.00
2023-04-19T02:01:54.224Z,96101.00
2023-04-19T02:02:53.387Z,96101.00
2023-04-19T02:03:54.385Z,96099.00
2023-04-19T02:04:54.264Z,96099.00
2023-04-19T02:05:53.279Z,96095.00
2023-04-19T02:06:53.344Z,96099.00
2023-04-19T02:07:53.343Z,96099.00
2023-04-19T02:08:54.423Z,96099.00
2023-04-19T02:09:54.417Z,96094.00
2023-04-19T02:10:54.453Z,96094.00
2023-04-19T02:11:53.469Z,96094.00
2023-04-19T02:12:54.504Z,96092.00
2023-04-19T02:13:54.518Z,96094.00
2023-04-19T02:14:54.547Z,96094.00
2023-04-19T02:15:54.647Z,96090.00
2023-04-19T02:16:54.671Z,96090.00
2023-04-19T02:17:53.712Z,96090.00
2023-04-19T02:18:54.688Z,96086.00
2023-04-19T02:19:54.733Z,96088.00
2023-04-19T02:20:54.824Z,96088.00
2023-04-19T02:21:54.809Z,96086.00
2023-04-19T02:22:53.853Z,96082.00
2023-04-19T02:23:54.897Z,96082.00
2023-04-19T02:24:54.975Z,96080.00
2023-04-19T02:25:54.972Z,96080.00
2023-04-19T02:26:53.980Z,96080.00
2023-04-19T02:27:54.026Z,96080.00
2023-04-19T02:28:55.087Z,96080.00
2023-04-19T02:29:55.088Z,96080.00
2023-04-19T02:30:55.137Z,96078.00
2023-04-19T02:31:54.241Z,96080.00
2023-04-19T02:32:55.315Z,96080.00
2023-04-19T02:33:55.227Z,96080.00
2023-04-19T02:34:55.280Z,96080.00
2023-04-19T02:35:55.270Z,96082.00
2023-04-19T02:36:55.288Z,96078.00
2023-04-19T02:37:54.313Z,96078.00
2023-04-19T02:38:54.359Z,96080.00
2023-04-19T02:39:55.404Z,96080.00
2023-04-19T02:40:54.452Z,96082.00
2023-04-19T02:41:55.442Z,96082.00
2023-04-19T02:42:55.450Z,96080.00
2023-04-19T02:43:55.467Z,96078.00
2023-04-19T02:44:55.493Z,96076.00
2023-04-19T02:45:55.525Z,96074.00
2023-04-19T02:46:55.551Z,96074.00
2023-04-19T02:47:54.575Z,96074.00
2023-04-19T02:48:55.560Z,96070.00
2023-04-19T02:49:55.601Z,96068.00
2023-04-19T02:50:54.610Z,96070.00
2023-04-19T02:51:55.596Z,96072.00
2023-04-19T02:52:55.614Z,96070.00
2023-04-19T02:53:54.614Z,96068.00
2023-04-19T02:54:54.632Z,96070.00
2023-04-19T02:55:55.630Z,96066.00
2023-04-19T02:56:54.631Z,96068.00
2023-04-19T02:57:54.608Z,96068.00
2023-04-19T02:58:54.616Z,96068.00
2023-04-19T02:59:54.620Z,96066.00
2023-04-19T03:00:54.680Z,96066.00
2023-04-19T03:01:55.766Z,96066.00
2023-04-19T03:02:55.781Z,96066.00
2023-04-19T03:03:55.807Z,96068.00
2023-04-19T03:04:55.646Z,96068.00
2023-04-19T03:05:54.678Z,96064.00
2023-04-19T03:06:55.704Z,96066.00
2023-04-19T03:08:08.430Z,96066.00
2023-04-19T03:08:55.716Z,96064.00
2023-04-19T03:09:58.747Z,96062.00
2023-04-19T03:10:55.731Z,96064.00
2023-04-19T03:12:04.248Z,96060.00
2023-04-19T03:12:55.694Z,96060.00
2023-04-19T03:13:55.687Z,96060.00
2023-04-19T03:14:54.673Z,96058.00
2023-04-19T03:15:54.699Z,96058.00
2023-04-19T03:17:08.323Z,96058.00
2023-04-19T03:17:55.720Z,96058.00
2023-04-19T03:18:54.661Z,96056.00
2023-04-19T03:19:55.793Z,96060.00
2023-04-19T03:20:54.633Z,96056.00
2023-04-19T03:21:54.622Z,96054.00
2023-04-19T03:22:54.609Z,96054.00
2023-04-19T03:23:55.636Z,96054.00
2023-04-19T03:24:55.591Z,96052.00
2023-04-19T03:25:55.597Z,96054.00
2023-04-19T03:26:54.581Z,96052.00
2023-04-19T03:27:55.614Z,96050.00
2023-04-19T03:28:55.562Z,96048.00
2023-04-19T03:29:54.559Z,96048.00
2023-04-19T03:30:55.567Z,96047.00
2023-04-19T03:31:54.561Z,96050.00
2023-04-19T03:32:54.609Z,96045.00
2023-04-19T03:33:55.538Z,96043.00
2023-04-19T03:34:55.552Z,96045.00
2023-04-19T03:35:55.546Z,96047.00
2023-04-19T03:36:55.533Z,96045.00
2023-04-19T03:37:55.499Z,96047.00
2023-04-19T03:38:55.508Z,96047.00
2023-04-19T03:39:54.493Z,96045.00
2023-04-19T03:40:55.641Z,96047.00
2023-04-19T03:41:55.540Z,96045.00
2023-04-19T03:42:55.560Z,96043.00
2023-04-19T03:43:55.634Z,96043.00
2023-04-19T03:44:54.643Z,96043.00
2023-04-19T03:45:55.698Z,96045.00
2023-04-19T03:46:54.739Z,96045.00
2023-04-19T03:47:54.854Z,96045.00
2023-04-19T03:48:55.805Z,96045.00
2023-04-19T03:49:54.851Z,96045.00
2023-04-19T03:50:54.883Z,96043.00
2023-04-19T03:51:55.940Z,96043.00
2023-04-19T03:52:55.970Z,96043.00
2023-04-19T03:53:55.026Z,96043.00
2023-04-19T03:54:56.060Z,96041.00
2023-04-19T03:55:55.085Z,96043.00
2023-04-19T03:56:56.150Z,96043.00
2023-04-19T03:57:55.182Z,96039.00
2023-04-19T03:58:55.221Z,96039.00
2023-04-19T03:59:55.285Z,96041.00
2023-04-19T04:00:56.299Z,96041.00
2023-04-19T04:01:56.017Z,96041.00
2023-04-19T04:02:55.592Z,96041.00
2023-04-19T04:03:56.534Z,96041.00
2023-04-19T04:04:55.530Z,96041.00
2023-04-19T04:05:56.494Z,96039.00
2023-04-19T04:06:56.544Z,96039.00
2023-04-19T04:07:56.599Z,96039.00
2023-04-19T04:08:56.605Z,96039.00
2023-04-19T04:09:56.652Z,96039.00
2023-04-19T04:10:56.728Z,96041.00
2023-04-19T04:11:56.734Z,96037.00
2023-04-19T04:12:55.759Z,96039.00
2023-04-19T04:13:56.828Z,96039.00
2023-04-19T04:14:56.893Z,96039.00
2023-04-19T04:15:56.927Z,96039.00
2023-04-19T04:16:55.938Z,96037.00
2023-04-19T04:17:56.025Z,96043.00
2023-04-19T04:18:57.029Z,96041.00
2023-04-19T04:19:57.076Z,96037.00
2023-04-19T04:20:56.102Z,96037.00
2023-04-19T04:21:56.133Z,96037.00
2023-04-19T04:22:57.186Z,96043.00
2023-04-19T04:23:56.228Z,96041.00
2023-04-19T04:24:57.271Z,96039.00
2023-04-19T04:25:57.327Z,96039.00
2023-04-19T04:26:57.384Z,96041.00
2023-04-19T04:27:57.424Z,96039.00
2023-04-19T04:28:56.482Z,96039.00
2023-04-19T04:29:57.539Z,96039.00
2023-04-19T04:30:57.595Z,96039.00
2023-04-19T04:31:56.689Z,96039.00
2023-04-19T04:32:57.710Z,96039.00
2023-04-19T04:33:57.706Z,96041.00
2023-04-19T04:34:57.770Z,96041.00
2023-04-19T04:35:57.817Z,96041.00
2023-04-19T04:36:57.872Z,96041.00
2023-04-19T04:37:57.919Z,96041.00
2023-04-19T04:38:57.965Z,96041.00
2023-04-19T04:39:57.046Z,96041.00
2023-04-19T04:40:58.059Z,96039.00
2023-04-19T04:41:58.108Z,96035.00
2023-04-19T04:42:58.155Z,96039.00
2023-04-19T04:44:11.487Z,96039.00
2023-04-19T04:44:58.210Z,96037.00
2023-04-19T04:45:58.530Z,96041.00
2023-04-19T04:46:57.210Z,96035.00
2023-04-19T04:47:57.280Z,96039.00
2023-04-19T04:48:58.164Z,96037.00
2023-04-19T04:49:57.165Z,96043.00
2023-04-19T04:50:57.160Z,96041.00
2023-04-19T04:51:58.131Z,96043.00
2023-04-19T04:52:58.120Z,96041.00
2023-04-19T04:53:58.179Z,96041.00
2023-04-19T04:54:58.125Z,96043.00
2023-04-19T04:55:57.115Z,96041.00
2023-04-19T04:56:57.315Z,96041.00
2023-04-19T04:57:58.093Z,96045.00
2023-04-19T04:58:58.073Z,96043.00
2023-04-19T04:59:57.070Z,96043.00
2023-04-19T05:00:58.114Z,96039.00
2023-04-19T05:01:57.117Z,96041.00
2023-04-19T05:02:57.212Z,96043.00
2023-04-19T05:03:58.084Z,96043.00
2023-04-19T05:04:58.032Z,96039.00
2023-04-19T05:05:57.034Z,96041.00
2023-04-19T05:06:57.035Z,96041.00
2023-04-19T05:07:58.056Z,96039.00
2023-04-19T05:08:57.018Z,96041.00
2023-04-19T05:09:57.575Z,96043.00
2023-04-19T05:10:57.036Z,96043.00
2023-04-19T05:11:58.043Z,96041.00
2023-04-19T05:12:57.090Z,96041.00
2023-04-19T05:13:58.104Z,96039.00
2023-04-19T05:14:58.137Z,96041.00
2023-04-19T05:15:58.190Z,96043.00
2023-04-19T05:16:58.192Z,96041.00
2023-04-19T05:17:58.257Z,96041.00
2023-04-19T05:18:57.312Z,96045.00
2023-04-19T05:19:58.297Z,96043.00
2023-04-19T05:20:57.391Z,96039.00
2023-04-19T05:21:57.369Z,96039.00
2023-04-19T05:22:58.410Z,96037.00
2023-04-19T05:23:57.467Z,96041.00
2023-04-19T05:24:58.453Z,96041.00
2023-04-19T05:25:57.502Z,96037.00
2023-04-19T05:26:58.526Z,96035.00
2023-04-19T05:27:58.597Z,96037.00
2023-04-19T05:28:57.595Z,96037.00
2023-04-19T05:29:57.609Z,96037.00
2023-04-19T05:30:57.689Z,96039.00
2023-04-19T05:31:57.691Z,96037.00
2023-04-19T05:32:57.760Z,96039.00
2023-04-19T05:33:58.762Z,96035.00
2023-04-19T05:34:57.826Z,96035.00
2023-04-19T05:35:58.831Z,96033.00
2023-04-19T05:36:57.870Z,96035.00
2023-04-19T05:37:58.894Z,96031.00
2023-04-19T05:38:58.923Z,96029.00
2023-04-19T05:39:58.941Z,96035.00
2023-04-19T05:40:58.973Z,96031.00
2023-04-19T05:41:57.987Z,96033.00
2023-04-19T05:42:59.020Z,96035.00
2023-04-19T05:43:58.034Z,96035.00
2023-04-19T05:44:58.081Z,96033.00
2023-04-19T05:45:58.105Z,96035.00
2023-04-19T05:46:59.108Z,96037.00
2023-04-19T05:47:58.214Z,96033.00
2023-04-19T05:48:58.148Z,96033.00
2023-04-19T05:49:59.246Z,96031.00
2023-04-19T05:50:59.189Z,96033.00
2023-04-19T05:51:58.201Z,96033.00
2023-04-19T05:52:58.289Z,96031.00
2023-04-19T05:53:59.301Z,96033.00
2023-04-19T05:54:58.242Z,96033.00
2023-04-19T05:55:59.236Z,96035.00
2023-04-19T05:56:59.228Z,96037.00
2023-04-19T05:57:59.284Z,96033.00
2023-04-19T05:58:59.277Z,96035.00
2023-04-19T06:00:58.313Z,96035.00
2023-04-19T06:01:59.374Z,96039.00
2023-04-19T06:02:58.483Z,96039.00
2023-04-19T06:03:59.395Z,96039.00
2023-04-19T06:05:02.492Z,96035.00
2023-04-19T06:05:59.333Z,96035.00
2023-04-19T06:06:58.247Z,96035.00
2023-04-19T06:08:58.327Z,96035.00
2023-04-19T06:09:59.311Z,96035.00
2023-04-19T06:11:02.632Z,96033.00
2023-04-19T06:11:59.212Z,96035.00
2023-04-19T06:12:59.362Z,96035.00
2023-04-19T06:13:58.180Z,96035.00
2023-04-19T06:14:58.184Z,96035.00
2023-04-19T06:15:59.241Z,96037.00
2023-04-19T06:16:58.177Z,96035.00
2023-04-19T06:17:59.821Z,96037.00
2023-04-19T06:18:59.166Z,96039.00
2023-04-19T06:19:58.145Z,96037.00
2023-04-19T06:20:58.198Z,96035.00
2023-04-19T06:21:59.247Z,96035.00
2023-04-19T06:22:58.137Z,96035.00
2023-04-19T06:23:58.124Z,96031.00
2023-04-19T06:24:59.101Z,96033.00
2023-04-19T06:25:58.100Z,96029.00
2023-04-19T06:26:59.120Z,96029.00
2023-04-19T06:27:58.088Z,96031.00
2023-04-19T06:28:59.080Z,96029.00
2023-04-19T06:29:59.080Z,96029.00
2023-04-19T06:30:58.086Z,96029.00
2023-04-19T06:31:59.163Z,96025.00
2023-04-19T06:32:59.088Z,96029.00
2023-04-19T06:33:59.036Z,96031.00
2023-04-19T06:34:58.071Z,96033.00
2023-04-19T06:35:58.113Z,96035.00
2023-04-19T06:36:59.178Z,96035.00
2023-04-19T06:37:58.040Z,96035.00
2023-04-19T06:38:59.039Z,96035.00
2023-04-19T06:39:59.008Z,96033.00
2023-04-19T06:40:59.009Z,96039.00
2023-04-19T06:41:59.006Z,96035.00
2023-04-19T06:42:59.039Z,96037.00
2023-04-19T06:43:58.018Z,96033.00
2023-04-19T06:44:58.025Z,96035.00
2023-04-19T06:45:59.120Z,96035.00
2023-04-19T06:46:58.080Z,96033.00
2023-04-19T06:47:59.158Z,96031.00
2023-04-19T06:48:59.121Z,96033.00
2023-04-19T06:49:59.319Z,96033.00
2023-04-19T06:50:59.139Z,96029.00
2023-04-19T06:51:58.107Z,96035.00
2023-04-19T06:52:58.321Z,96031.00
2023-04-19T06:53:59.174Z,96031.00
2023-04-19T06:54:59.135Z,96029.00
2023-04-19T06:55:58.155Z,96033.00
2023-04-19T06:56:59.168Z,96031.00
2023-04-19T06:57:59.309Z,96033.00
2023-04-19T06:58:58.236Z,96031.00
2023-04-19T06:59:59.204Z,96031.00
2023-04-19T07:00:58.276Z,96033.00
2023-04-19T07:01:59.270Z,96029.00
2023-04-19T07:02:58.308Z,96029.00
2023-04-19T07:03:58.453Z,96029.00
2023-04-19T07:04:59.222Z,96031.00
2023-04-19T07:05:59.298Z,96029.00
2023-04-19T07:06:58.259Z,96023.00
2023-04-19T07:07:59.325Z,96027.00
2023-04-19T07:08:59.337Z,96027.00
2023-04-19T07:09:59.639Z,96025.00
2023-04-19T07:10:59.370Z,96027.00
2023-04-19T07:11:59.644Z,96021.00
2023-04-19T07:12:59.576Z,96019.00
2023-04-19T07:13:59.471Z,96017.00
2023-04-19T07:14:58.798Z,96019.00
2023-04-19T07:15:58.709Z,96017.00
2023-04-19T07:16:59.582Z,96013.00
2023-04-19T07:17:58.699Z,96017.00
2023-04-19T07:18:58.594Z,96017.00
2023-04-19T07:19:59.545Z,96013.00
2023-04-19T07:20:59.558Z,96011.00
2023-04-19T07:21:58.540Z,96009.00
2023-04-19T07:22:59.557Z,96009.00
2023-04-19T07:23:59.568Z,96011.00
2023-04-19T07:24:59.554Z,96009.00
2023-04-19T07:25:58.617Z,96007.00
2023-04-19T07:26:59.592Z,96005.00
2023-04-19T07:27:59.642Z,96005.00
2023-04-19T07:28:59.715Z,96005.00
2023-04-19T07:29:59.765Z,96003.00
2023-04-19T07:30:59.790Z,96005.00
2023-04-19T07:31:59.864Z,96005.00
2023-04-19T07:32:59.890Z,96005.00
2023-04-19T07:33:59.943Z,96003.00
2023-04-19T07:34:59.966Z,96007.00
2023-04-19T07:35:59.075Z,96003.00
2023-04-19T07:37:00.074Z,96005.00
2023-04-19T07:37:59.151Z,96003.00
2023-04-19T07:38:59.179Z,96000.00
2023-04-19T07:40:00.292Z,96001.00
2023-04-19T07:40:59.346Z,96001.00
2023-04-19T07:41:59.520Z,96001.00
2023-04-19T07:43:00.431Z,96001.00
2023-04-19T07:44:00.502Z,96000.00
2023-04-19T07:45:00.532Z,96001.00
2023-04-19T07:46:00.594Z,96001.00
2023-04-19T07:47:00.738Z,96000.00
2023-04-19T07:48:00.847Z,96000.00
2023-04-19T07:48:59.712Z,96000.00
2023-04-19T07:50:00.761Z,95998.00
2023-04-19T07:51:00.876Z,95998.00
2023-04-19T07:52:00.843Z,95998.00
2023-04-19T07:53:00.876Z,95998.00
2023-04-19T07:54:00.816Z,95998.00
2023-04-19T07:55:00.835Z,96000.00
2023-04-19T07:55:59.870Z,95996.00
2023-04-19T07:57:00.873Z,95996.00
2023-04-19T07:58:01.062Z,95998.00
2023-04-19T07:59:07.631Z,95996.00
2023-04-19T08:00:00.914Z,95998.00
2023-04-19T08:01:01.041Z,95994.00
2023-04-19T08:02:00.029Z,95994.00
2023-04-19T08:03:01.065Z,95992.00
2023-04-19T08:04:00.181Z,95992.00
2023-04-19T08:05:01.001Z,95992.00
2023-04-19T08:05:59.881Z,95994.00
2023-04-19T08:06:59.923Z,95996.00
2023-04-19T08:07:59.853Z,95992.00
2023-04-19T08:09:00.858Z,95992.00
2023-04-19T08:10:01.037Z,95990.00
2023-04-19T08:11:01.969Z,95990.00
2023-04-19T08:11:59.871Z,95990.00
2023-04-19T08:13:05.856Z,95992.00
2023-04-19T08:14:26.829Z,95994.00
2023-04-19T08:15:07.916Z,95994.00
2023-04-19T08:16:20.434Z,95996.00
2023-04-19T08:17:59.897Z,95998.00
2023-04-19T08:18:59.870Z,95998.00
2023-04-19T08:19:59.850Z,95994.00
2023-04-19T08:20:59.853Z,95994.00
2023-04-19T08:22:00.861Z,95992.00
2023-04-19T08:23:10.498Z,95994.00
2023-04-19T08:24:00.870Z,95990.00
2023-04-19T08:24:59.827Z,95994.00
2023-04-19T08:26:00.834Z,95992.00
2023-04-19T08:27:00.228Z,95990.00
2023-04-19T08:28:00.816Z,95990.00
2023-04-19T08:29:00.787Z,95990.00
2023-04-19T08:29:59.829Z,95988.00
2023-04-19T08:31:00.781Z,95988.00
2023-04-19T08:31:59.888Z,95986.00
2023-04-19T08:32:59.886Z,95986.00
2023-04-19T08:34:00.775Z,95988.00
2023-04-19T08:35:00.756Z,95986.00
2023-04-19T08:36:00.783Z,95986.00
2023-04-19T08:37:04.449Z,95988.00
2023-04-19T08:38:02.054Z,95986.00
2023-04-19T08:39:05.722Z,95988.00
2023-04-19T08:40:00.729Z,95988.00
2023-04-19T08:40:59.702Z,95986.00
2023-04-19T08:42:06.801Z,95986.00
2023-04-19T08:43:00.886Z,95988.00
2023-04-19T08:43:59.696Z,95982.00
2023-04-19T08:46:00.829Z,95980.00
2023-04-19T08:47:00.658Z,95982.00
2023-04-19T08:48:01.844Z,95982.00
2023-04-19T08:49:00.888Z,95980.00
2023-04-19T08:50:11.045Z,95980.00
2023-04-19T08:51:05.427Z,95980.00
2023-04-19T08:52:01.145Z,95978.00
2023-04-19T08:53:08.507Z,95978.00
2023-04-19T08:54:00.882Z,95978.00
2023-04-19T08:54:59.875Z,95978.00
2023-04-19T08:56:10.495Z,95980.00
2023-04-19T08:57:00.889Z,95976.00
2023-04-19T08:58:00.882Z,95974.00
2023-04-19T08:59:11.518Z,95972.00
2023-04-19T09:00:00.825Z,95972.00
2023-04-19T09:01:00.865Z,95970.00
2023-04-19T09:01:59.969Z,95968.00
2023-04-19T09:03:01.066Z,95966.00
2023-04-19T09:04:07.267Z,95964.00
2023-04-19T09:05:01.057Z,95964.00
2023-04-19T09:06:00.855Z,95964.00
2023-04-19T09:07:00.754Z,95964.00
2023-04-19T09:08:00.791Z,95962.00
2023-04-19T09:09:00.770Z,95964.00
2023-04-19T09:10:03.225Z,95960.00
2023-04-19T09:11:00.750Z,95964.00
2023-04-19T09:12:00.790Z,95960.00
2023-04-19T09:13:00.730Z,95962.00
2023-04-19T09:13:59.707Z,95958.00
2023-04-19T09:15:02.334Z,95958.00
2023-04-19T09:16:00.927Z,95960.00
2023-04-19T09:17:00.735Z,95958.00
2023-04-19T09:18:00.821Z,95954.00
2023-04-19T09:19:08.599Z,95954.00
2023-04-19T09:20:00.696Z,95954.00
2023-04-19T09:21:00.710Z,95949.00
2023-04-19T09:21:59.662Z,95949.00
2023-04-19T09:23:00.664Z,95949.00
2023-04-19T09:24:02.420Z,95947.00
2023-04-19T09:27:00.617Z,95943.00
2023-04-19T09:28:00.661Z,95947.00
2023-04-19T09:28:59.605Z,95947.00
2023-04-19T09:29:59.596Z,95943.00
2023-04-19T09:31:15.148Z,95945.00
2023-04-19T09:32:00.676Z,95943.00
2023-04-19T09:33:00.618Z,95947.00
2023-04-19T09:34:00.660Z,95941.00
2023-04-19T09:34:59.745Z,95945.00
2023-04-19T09:35:59.589Z,95941.00
2023-04-19T09:37:11.723Z,95941.00
2023-04-19T09:38:05.833Z,95937.00
2023-04-19T09:39:00.538Z,95933.00
2023-04-19T09:40:00.520Z,95933.00
2023-04-19T09:41:00.551Z,95933.00
2023-04-19T09:42:00.507Z,95931.00
2023-04-19T09:43:12.887Z,95929.00
2023-04-19T09:44:15.557Z,95929.00
2023-04-19T09:45:25.425Z,95929.00
2023-04-19T09:46:00.559Z,95931.00
2023-04-19T09:47:00.506Z,95929.00
2023-04-19T09:48:00.965Z,95921.00
2023-04-19T09:49:04.049Z,95923.00
2023-04-19T09:50:00.698Z,95925.00
2023-04-19T09:51:04.609Z,95921.00
2023-04-19T09:52:00.437Z,95923.00
2023-04-19T09:53:01.484Z,95919.00
2023-04-19T09:54:00.420Z,95921.00
2023-04-19T09:54:59.426Z,95919.00
2023-04-19T09:56:02.754Z,95919.00
2023-04-19T09:57:01.619Z,95917.00
2023-04-19T09:58:00.421Z,95917.00
2023-04-19T09:59:11.956Z,95917.00
2023-04-19T10:00:00.384Z,95917.00
2023-04-19T10:01:13.241Z,95915.00
2023-04-19T10:02:00.462Z,95917.00
2023-04-19T10:02:59.388Z,95917.00
2023-04-19T10:04:14.455Z,95917.00
2023-04-19T10:06:06.752Z,95903.00
2023-04-19T10:08:01.418Z,95905.00
2023-04-19T10:08:59.305Z,95903.00
2023-04-19T10:10:11.589Z,95901.00
2023-04-19T10:11:00.298Z,95899.00
2023-04-19T10:12:06.553Z,95899.00
2023-04-19T10:14:00.274Z,95897.00
2023-04-19T10:14:59.288Z,95897.00
2023-04-19T10:16:04.814Z,95895.00
2023-04-19T10:17:00.340Z,95895.00
2023-04-19T10:18:00.260Z,95895.00
2023-04-19T10:19:00.240Z,95895.00
2023-04-19T10:20:00.259Z,95895.00
2023-04-19T10:21:00.259Z,95893.00
2023-04-19T10:21:59.310Z,95893.00
2023-04-19T10:22:59.194Z,95890.00
2023-04-19T10:23:59.206Z,95890.00
2023-04-19T10:24:59.185Z,95888.00
2023-04-19T10:26:00.214Z,95888.00
2023-04-19T10:27:00.183Z,95886.00
2023-04-19T10:27:59.248Z,95886.00
2023-04-19T10:28:59.312Z,95884.00
2023-04-19T10:30:00.337Z,95886.00
2023-04-19T10:31:00.382Z,95882.00
2023-04-19T10:31:59.482Z,95882.00
2023-04-19T10:33:00.577Z,95882.00
2023-04-19T10:33:59.557Z,95876.00
2023-04-19T10:35:00.610Z,95876.00
2023-04-19T10:36:00.650Z,95876.00
2023-04-19T10:37:00.695Z,95876.00
2023-04-19T10:37:59.900Z,95872.00
2023-04-19T10:38:59.780Z,95872.00
2023-04-19T10:40:00.830Z,95874.00
2023-04-19T10:40:59.878Z,95872.00
2023-04-19T10:41:59.925Z,95868.00
2023-04-19T10:42:59.948Z,95866.00
2023-04-19T10:44:00.398Z,95868.00
2023-04-19T10:45:00.989Z,95864.00
2023-04-19T10:46:01.053Z,95864.00
2023-04-19T10:47:00.029Z,95860.00
2023-04-19T10:48:00.095Z,95858.00
2023-04-19T10:49:01.049Z,95852.00
2023-04-19T10:50:01.084Z,95852.00
2023-04-19T10:51:01.168Z,95850.00
2023-04-19T10:52:01.231Z,95850.00
2023-04-19T10:53:00.285Z,95852.00
2023-04-19T10:54:00.538Z,95846.00
2023-04-19T10:55:00.328Z,95845.00
2023-04-19T10:56:01.371Z,95845.00
2023-04-19T10:57:00.439Z,95845.00
2023-04-19T10:58:00.426Z,95841.00
2023-04-19T10:59:01.932Z,95843.00
2023-04-19T11:00:00.503Z,95837.00
2023-04-19T11:01:01.566Z,95835.00
2023-04-19T11:02:00.621Z,95837.00
2023-04-19T11:03:00.698Z,95837.00
2023-04-19T11:04:00.681Z,95835.00
2023-04-19T11:05:00.608Z,95833.00
2023-04-19T11:06:01.569Z,95833.00
2023-04-19T11:07:00.523Z,95829.00
2023-04-19T11:08:01.564Z,95827.00
2023-04-19T11:09:01.520Z,95827.00
2023-04-19T11:10:00.577Z,95829.00
2023-04-19T11:11:00.562Z,95827.00
2023-04-19T11:12:00.511Z,95825.00
2023-04-19T11:13:01.531Z,95821.00
2023-04-19T11:14:01.525Z,95821.00
2023-04-19T11:15:01.635Z,95821.00
2023-04-19T11:16:01.778Z,95821.00
2023-04-19T11:17:01.839Z,95815.00
2023-04-19T11:18:12.708Z,95819.00
2023-04-19T11:19:01.733Z,95821.00
2023-04-19T11:20:01.713Z,95817.00
2023-04-19T11:21:00.686Z,95815.00
2023-04-19T11:22:01.705Z,95817.00
2023-04-19T11:23:01.674Z,95815.00
2023-04-19T11:24:00.697Z,95813.00
2023-04-19T11:25:01.696Z,95817.00
2023-04-19T11:26:01.701Z,95815.00
2023-04-19T11:27:00.648Z,95815.00
2023-04-19T11:28:00.669Z,95813.00
2023-04-19T11:29:00.631Z,95813.00
2023-04-19T11:30:01.659Z,95811.00
2023-04-19T11:31:00.692Z,95813.00
2023-04-19T11:32:01.678Z,95811.00
2023-04-19T11:33:01.670Z,95807.00
2023-04-19T11:34:00.622Z,95807.00
2023-04-19T11:35:01.660Z,95803.00
2023-04-19T11:36:01.596Z,95805.00
2023-04-19T11:37:00.583Z,95805.00
2023-04-19T11:38:01.572Z,95801.00
2023-04-19T11:39:01.609Z,95803.00
2023-04-19T11:40:02.104Z,95801.00
2023-04-19T11:41:01.674Z,95803.00
2023-04-19T11:42:01.700Z,95801.00
2023-04-19T11:43:01.551Z,95796.00
2023-04-19T11:44:01.557Z,95798.00
2023-04-19T11:45:00.509Z,95801.00
2023-04-19T11:46:01.512Z,95801.00
2023-04-19T11:47:01.534Z,95801.00
2023-04-19T11:48:00.638Z,95805.00
2023-04-19T11:49:00.500Z,95801.00
2023-04-19T11:50:00.482Z,95799.00
2023-04-19T11:51:01.615Z,95799.00
2023-04-19T11:52:04.660Z,95801.00
2023-04-19T11:53:01.470Z,95801.00
2023-04-19T11:54:01.467Z,95803.00